createdAt,value
2022-12-27T00:02:14.743Z,1.37
2022-12-27T00:07:18.241Z,0.90
2022-12-27T00:12:22.876Z,1.23
2022-12-27T00:17:26.291Z,1.30
2022-12-27T00:22:29.546Z,1.20
2022-12-27T00:27:34.230Z,1.30
2022-12-27T00:32:37.654Z,1.50
2022-12-27T00:37:40.888Z,1.20
2022-12-27T00:42:45.654Z,1.30
2022-12-27T00:47:48.895Z,1.00
2022-12-27T00:52:53.473Z,1.13
2022-12-27T00:57:58.164Z,1.00
2022-12-27T01:03:01.535Z,1.03
2022-12-27T01:08:05.741Z,1.30
2022-12-27T01:13:10.992Z,1.27
2022-12-27T01:18:14.352Z,1.43
2022-12-27T01:23:17.911Z,1.30
2022-12-27T01:28:22.501Z,1.47
2022-12-27T01:33:25.660Z,1.20
2022-12-27T01:38:29.039Z,1.30
2022-12-27T01:43:39.652Z,1.30
2022-12-27T01:48:43.150Z,1.30
2022-12-27T01:53:48.864Z,1.00
2022-12-27T01:58:55.443Z,1.00
2022-12-27T02:03:59.520Z,1.20
2022-12-27T02:09:04.586Z,1.07
2022-12-27T02:14:09.409Z,1.00
2022-12-27T02:19:18.068Z,1.13
2022-12-27T02:24:28.552Z,1.30
2022-12-27T02:29:37.727Z,1.40
2022-12-27T02:34:51.943Z,1.10
2022-12-27T02:39:56.320Z,1.30
2022-12-27T02:45:14.843Z,2.00
2022-12-27T02:50:35.734Z,1.10
2022-12-27T02:56:09.352Z,1.20
2022-12-27T03:01:36.509Z,1.37
2022-12-27T03:06:56.102Z,1.20
2022-12-27T03:12:19.027Z,1.60
2022-12-27T03:17:26.794Z,3.33
2022-12-27T03:22:49.202Z,4.20
2022-12-27T03:28:18.394Z,2.63
2022-12-27T03:33:23.196Z,4.63
2022-12-27T03:38:26.695Z,1.73
2022-12-27T03:43:30.201Z,1.40
2022-12-27T03:48:40.121Z,1.43
2022-12-27T03:53:45.803Z,1.40
2022-12-27T03:58:49.328Z,1.33
2022-12-27T04:03:53.909Z,1.20
2022-12-27T04:09:14.893Z,1.30
2022-12-27T04:14:35.775Z,1.30
2022-12-27T04:19:57.978Z,1.70
2022-12-27T04:25:18.727Z,1.20
2022-12-27T04:30:39.752Z,1.30
2022-12-27T04:35:44.379Z,1.30
2022-12-27T04:41:05.340Z,1.33
2022-12-27T04:46:29.176Z,1.30
2022-12-27T04:51:51.488Z,1.40
2022-12-27T04:56:55.154Z,1.57
2022-12-27T05:02:04.906Z,1.43
2022-12-27T05:07:28.604Z,1.30
2022-12-27T05:12:49.380Z,1.83
2022-12-27T05:17:52.648Z,1.40
2022-12-27T05:23:14.869Z,1.70
2022-12-27T05:28:18.283Z,1.70
2022-12-27T05:33:21.539Z,1.87
2022-12-27T05:38:26.174Z,1.47
2022-12-27T05:43:29.824Z,1.33
2022-12-27T05:48:33.195Z,1.40
2022-12-27T05:53:38.075Z,1.20
2022-12-27T05:58:41.402Z,1.30
2022-12-27T06:03:45.455Z,0.90
2022-12-27T06:08:50.163Z,1.13
2022-12-27T06:13:54.248Z,1.10
2022-12-27T06:19:03.222Z,1.30
2022-12-27T06:24:09.616Z,1.20
2022-12-27T06:29:14.018Z,1.00
2022-12-27T06:34:17.497Z,1.20
2022-12-27T06:39:22.862Z,1.13
2022-12-27T06:44:26.493Z,1.43
2022-12-27T06:49:29.825Z,1.17
2022-12-27T06:54:34.718Z,1.30
2022-12-27T06:59:38.032Z,1.40
2022-12-27T07:04:41.722Z,1.47
2022-12-27T07:09:46.283Z,1.10
2022-12-27T07:14:49.553Z,1.50
2022-12-27T07:19:52.880Z,1.50
2022-12-27T07:24:58.172Z,1.07
2022-12-27T07:30:01.639Z,1.80
2022-12-27T07:35:05.203Z,0.87
2022-12-27T07:40:10.787Z,1.27
2022-12-27T07:45:14.183Z,1.23
2022-12-27T07:50:17.508Z,1.20
2022-12-27T07:55:22.769Z,1.17
2022-12-27T08:00:28.177Z,1.60
2022-12-27T08:05:31.454Z,1.20
2022-12-27T08:10:36.233Z,1.33
2022-12-27T08:15:40.174Z,1.20
2022-12-27T08:20:43.594Z,1.10
2022-12-27T08:25:48.909Z,1.30
2022-12-27T08:30:54.000Z,2.00
2022-12-27T08:35:58.752Z,1.00
2022-12-27T08:41:03.713Z,1.30
2022-12-27T08:46:10.505Z,1.30
2022-12-27T08:51:19.341Z,1.00
2022-12-27T08:56:31.352Z,1.30
2022-12-27T09:01:34.813Z,1.77
2022-12-27T09:06:40.430Z,1.10
2022-12-27T09:11:45.085Z,1.30
2022-12-27T09:16:48.465Z,1.20
2022-12-27T09:21:51.773Z,1.03
2022-12-27T09:26:56.378Z,5.50
2022-12-27T09:31:59.638Z,1.13
2022-12-27T09:37:03.428Z,1.60
2022-12-27T09:42:46.671Z,1.20
2022-12-27T09:47:39.939Z,1.67
2022-12-27T09:52:48.233Z,2.83
2022-12-27T09:58:00.028Z,1.50
2022-12-27T10:03:05.460Z,1.10
2022-12-27T10:08:19.877Z,1.20
2022-12-27T10:13:32.816Z,1.50
2022-12-27T10:18:41.873Z,2.40
2022-12-27T10:23:50.617Z,1.83
2022-12-27T10:28:57.601Z,1.40
2022-12-27T10:34:03.973Z,1.37
2022-12-27T10:39:16.914Z,1.33
2022-12-27T10:44:24.260Z,2.13
2022-12-27T10:49:30.312Z,1.73
2022-12-27T10:54:33.873Z,2.90
2022-12-27T10:59:38.531Z,2.40
2022-12-27T11:04:56.210Z,3.20
2022-12-27T11:10:07.558Z,3.17
2022-12-27T11:15:18.743Z,1.73
2022-12-27T11:20:23.431Z,1.43
2022-12-27T11:25:45.277Z,2.00
2022-12-27T11:30:54.790Z,1.60
2022-12-27T11:35:58.776Z,1.90
2022-12-27T11:41:03.897Z,2.10
2022-12-27T11:46:15.219Z,1.50
2022-12-27T11:51:28.494Z,1.30
2022-12-27T11:56:32.348Z,1.30
2022-12-27T12:02:02.854Z,1.33
2022-12-27T12:07:12.993Z,1.50
2022-12-27T12:12:27.691Z,1.10
2022-12-27T12:17:42.880Z,1.30
2022-12-27T12:23:00.193Z,1.63
2022-12-27T12:28:55.548Z,1.20
2022-12-27T12:33:48.878Z,1.50
2022-12-27T12:38:56.998Z,1.10
2022-12-27T12:44:18.237Z,1.83
2022-12-27T12:49:34.754Z,1.00
2022-12-27T12:54:48.359Z,1.40
2022-12-27T13:00:00.566Z,1.40
2022-12-27T13:05:13.280Z,1.30
2022-12-27T13:10:29.000Z,1.33
2022-12-27T13:15:39.538Z,1.40
2022-12-27T13:20:57.469Z,1.50
2022-12-27T13:26:08.326Z,1.30
2022-12-27T13:31:23.256Z,1.43
2022-12-27T13:36:28.240Z,2.00
2022-12-27T13:41:44.322Z,1.33
2022-12-27T13:46:59.325Z,1.60
2022-12-27T13:52:07.649Z,2.30
2022-12-27T13:57:19.233Z,2.07
2022-12-27T14:02:34.880Z,1.70
2022-12-27T14:07:45.110Z,1.60
2022-12-27T14:13:00.780Z,1.43
2022-12-27T14:18:17.325Z,1.80
2022-12-27T14:23:38.731Z,1.77
2022-12-27T14:29:02.973Z,2.17
2022-12-27T14:34:24.313Z,1.37
2022-12-27T14:39:45.642Z,1.50
2022-12-27T14:45:19.062Z,1.80
2022-12-27T14:50:49.532Z,1.40
2022-12-27T14:55:59.530Z,1.97
2022-12-27T15:01:12.470Z,1.57
2022-12-27T15:06:20.966Z,1.90
2022-12-27T15:11:31.714Z,2.33
2022-12-27T15:16:40.854Z,2.20
2022-12-27T15:21:49.722Z,1.70
2022-12-27T15:26:55.316Z,1.87
2022-12-27T15:32:02.520Z,1.27
2022-12-27T15:37:07.670Z,1.50
2022-12-27T15:42:23.499Z,1.50
2022-12-27T15:47:39.333Z,2.53
2022-12-27T15:52:53.373Z,2.00
2022-12-27T15:58:03.293Z,1.60
2022-12-27T16:03:26.887Z,2.53
2022-12-27T16:08:36.265Z,2.30
2022-12-27T16:13:43.974Z,2.13
2022-12-27T16:19:05.494Z,5.17
2022-12-27T16:24:14.686Z,6.10
2022-12-27T16:29:18.187Z,3.73
2022-12-27T16:34:25.686Z,11.30
2022-12-27T16:39:42.693Z,11.00
2022-12-27T16:44:59.030Z,6.17
2022-12-27T16:50:15.643Z,2.00
2022-12-27T16:55:31.861Z,1.77
2022-12-27T17:00:40.229Z,7.50
2022-12-27T17:05:58.690Z,7.20
2022-12-27T17:11:22.496Z,9.33
2022-12-27T17:16:29.103Z,11.50
2022-12-27T17:21:33.491Z,2.90
2022-12-27T17:26:45.861Z,2.13
2022-12-27T17:31:53.862Z,1.60
2022-12-27T17:37:00.130Z,1.27
2022-12-27T17:42:25.156Z,2.17
2022-12-27T17:47:41.446Z,1.83
2022-12-27T17:53:19.475Z,1.10
2022-12-27T17:58:22.774Z,1.60
2022-12-27T18:03:31.856Z,1.30
2022-12-27T18:08:36.209Z,1.50
2022-12-27T18:13:40.870Z,2.67
2022-12-27T18:18:48.751Z,3.63
2022-12-27T18:23:53.687Z,3.63
2022-12-27T18:28:58.296Z,1.77
2022-12-27T18:34:07.081Z,1.50
2022-12-27T18:39:18.946Z,2.27
2022-12-27T18:44:27.585Z,1.40
2022-12-27T18:49:34.027Z,1.97
2022-12-27T18:54:37.369Z,1.60
2022-12-27T18:59:40.733Z,1.43
2022-12-27T19:04:45.562Z,1.80
2022-12-27T19:09:51.077Z,2.03
2022-12-27T19:14:54.931Z,1.33
2022-12-27T19:20:02.504Z,1.90
2022-12-27T19:25:06.969Z,1.20
2022-12-27T19:30:25.151Z,1.70
2022-12-27T19:35:29.852Z,1.60
2022-12-27T19:40:33.483Z,1.73
2022-12-27T19:45:37.018Z,1.17
2022-12-27T19:50:47.834Z,1.30
2022-12-27T19:55:51.039Z,0.97
2022-12-27T20:00:55.043Z,2.67
2022-12-27T20:06:13.586Z,2.43
2022-12-27T20:11:23.171Z,4.80
2022-12-27T20:16:27.465Z,6.90
2022-12-27T20:21:32.313Z,3.00
2022-12-27T20:26:35.567Z,5.20
2022-12-27T20:31:45.190Z,2.30
2022-12-27T20:36:52.053Z,2.10
2022-12-27T20:41:56.371Z,2.00
2022-12-27T20:47:01.990Z,1.60
2022-12-27T20:52:07.040Z,1.20
2022-12-27T20:57:10.318Z,1.60
2022-12-27T21:02:14.390Z,1.70
2022-12-27T21:07:19.266Z,1.47
2022-12-27T21:12:22.885Z,1.80
2022-12-27T21:17:26.257Z,1.77
2022-12-27T21:22:31.139Z,1.80
2022-12-27T21:27:34.576Z,1.63
2022-12-27T21:32:37.987Z,1.80
2022-12-27T21:37:42.912Z,2.00
2022-12-27T21:42:46.456Z,1.57
2022-12-27T21:47:50.078Z,1.80
2022-12-27T21:52:54.754Z,1.63
2022-12-27T21:57:58.709Z,1.47
2022-12-27T22:03:02.583Z,1.60
2022-12-27T22:08:08.147Z,1.53
2022-12-27T22:13:14.613Z,2.63
2022-12-27T22:18:18.338Z,2.67
2022-12-27T22:23:23.091Z,2.70
2022-12-27T22:28:28.042Z,4.37
2022-12-27T22:33:31.456Z,3.00
2022-12-27T22:38:37.072Z,3.30
2022-12-27T22:43:40.630Z,6.53
2022-12-27T22:48:44.007Z,1.70
2022-12-27T22:53:49.146Z,2.33
2022-12-27T22:58:52.705Z,2.10
2022-12-27T23:03:56.330Z,2.10
2022-12-27T23:09:01.454Z,2.57
2022-12-27T23:14:05.935Z,1.93
2022-12-27T23:19:09.886Z,2.07
2022-12-27T23:24:14.658Z,2.10
2022-12-27T23:29:18.197Z,1.93
2022-12-27T23:34:27.712Z,2.17
2022-12-27T23:39:33.090Z,2.67
2022-12-27T23:44:36.631Z,2.80
2022-12-27T23:49:39.912Z,2.30
2022-12-27T23:54:44.522Z,2.30
2022-12-27T23:59:47.881Z,2.43
